createdAt,value
2023-04-30T00:00:22.154Z,100218.59
2023-04-30T00:03:25.150Z,100206.19
2023-04-30T00:06:28.529Z,100214.72
2023-04-30T00:09:31.120Z,100188.16
2023-04-30T00:12:33.639Z,100190.13
2023-04-30T00:15:36.625Z,100214.88
2023-04-30T00:18:39.624Z,100214.59
2023-04-30T00:21:42.438Z,100201.94
2023-04-30T00:24:44.893Z,100205.47
2023-04-30T00:27:47.489Z,100199.16
2023-04-30T00:30:49.893Z,100191.03
2023-04-30T00:33:52.319Z,100207.13
2023-04-30T00:36:54.852Z,100203.38
2023-04-30T00:39:57.386Z,100200.97
2023-04-30T00:42:59.997Z,100211.41
2023-04-30T00:46:03.932Z,100204.97
2023-04-30T00:49:06.726Z,100173.00
2023-04-30T00:52:09.220Z,100177.91
2023-04-30T00:55:13.176Z,100179.47
2023-04-30T00:58:16.011Z,100209.81
2023-04-30T01:01:18.793Z,100205.22
2023-04-30T01:04:21.959Z,100212.22
2023-04-30T01:07:28.361Z,100210.94
2023-04-30T01:10:42.253Z,100184.25
2023-04-30T01:13:58.473Z,100176.22
2023-04-30T01:17:17.674Z,100179.13
2023-04-30T01:20:20.675Z,100202.06
2023-04-30T01:24:00.635Z,100204.16
2023-04-30T01:27:09.976Z,100208.16
2023-04-30T01:30:13.937Z,100176.81
2023-04-30T01:33:16.419Z,100185.41
2023-04-30T01:36:57.524Z,100203.56
2023-04-30T01:40:24.205Z,100178.03
2023-04-30T01:43:38.721Z,100203.88
2023-04-30T01:46:46.792Z,100197.72
2023-04-30T01:50:08.757Z,100199.47
2023-04-30T01:53:17.077Z,100176.13
2023-04-30T01:56:34.065Z,100185.97
2023-04-30T01:59:39.707Z,100179.91
2023-04-30T02:02:42.664Z,100215.97
2023-04-30T02:05:45.262Z,100183.00
2023-04-30T02:08:48.371Z,100188.28
2023-04-30T02:11:51.341Z,100191.56
2023-04-30T02:14:53.805Z,100209.63
2023-04-30T02:17:56.374Z,100188.13
2023-04-30T02:20:58.878Z,100183.94
2023-04-30T02:24:01.667Z,100198.34
2023-04-30T02:27:04.073Z,100191.13
2023-04-30T02:30:07.148Z,100174.03
2023-04-30T02:33:12.392Z,100225.91
2023-04-30T02:36:14.843Z,100227.41
2023-04-30T02:39:17.530Z,100232.66
2023-04-30T02:42:20.260Z,100234.78
2023-04-30T02:45:22.704Z,100207.66
2023-04-30T02:48:25.350Z,100193.69
2023-04-30T02:51:28.339Z,100213.09
2023-04-30T02:54:30.854Z,100213.16
2023-04-30T02:57:33.274Z,100246.38
2023-04-30T03:00:35.777Z,100252.94
2023-04-30T03:03:38.312Z,100219.44
2023-04-30T03:06:40.920Z,100256.31
2023-04-30T03:09:44.006Z,100246.81
2023-04-30T03:12:46.650Z,100242.47
2023-04-30T03:15:49.057Z,100243.72
2023-04-30T03:18:51.647Z,100242.13
2023-04-30T03:21:54.891Z,100211.44
2023-04-30T03:24:57.324Z,100239.84
2023-04-30T03:27:59.862Z,100241.47
2023-04-30T03:31:05.440Z,100231.16
2023-04-30T03:34:08.181Z,100219.47
2023-04-30T03:37:10.702Z,100190.88
2023-04-30T03:40:13.268Z,100218.25
2023-04-30T03:43:15.832Z,100237.59
2023-04-30T03:46:18.864Z,100207.47
2023-04-30T03:49:21.922Z,100242.19
2023-04-30T03:52:24.449Z,100245.22
2023-04-30T03:55:27.075Z,100253.03
2023-04-30T03:58:30.115Z,100257.13
2023-04-30T04:01:32.835Z,100231.75
2023-04-30T04:04:35.686Z,100254.31
2023-04-30T04:07:38.146Z,100230.91
2023-04-30T04:10:41.103Z,100209.75
2023-04-30T04:13:44.697Z,100257.28
2023-04-30T04:16:48.628Z,100243.34
2023-04-30T04:19:51.076Z,100264.06
2023-04-30T04:22:54.054Z,100276.41
2023-04-30T04:25:57.601Z,100271.84
2023-04-30T04:29:00.552Z,100250.56
2023-04-30T04:32:04.677Z,100258.44
2023-04-30T04:35:08.450Z,100260.09
2023-04-30T04:38:10.865Z,100278.06
2023-04-30T04:41:13.258Z,100286.00
2023-04-30T04:44:16.043Z,100286.66
2023-04-30T04:47:21.911Z,100265.16
2023-04-30T04:50:24.674Z,100261.19
2023-04-30T04:53:27.170Z,100270.09
2023-04-30T04:56:29.581Z,100297.00
2023-04-30T04:59:32.191Z,100272.91
2023-04-30T05:02:34.711Z,100271.56
2023-04-30T05:05:37.090Z,100256.09
2023-04-30T05:08:39.545Z,100292.25
2023-04-30T05:11:43.844Z,100280.94
2023-04-30T05:14:47.683Z,100321.81
2023-04-30T05:17:50.094Z,100294.22
2023-04-30T05:20:52.498Z,100312.31
2023-04-30T05:23:55.431Z,100319.16
2023-04-30T05:26:58.013Z,100317.59
2023-04-30T05:30:00.886Z,100271.09
2023-04-30T05:33:03.758Z,100316.72
2023-04-30T05:36:06.410Z,100322.94
2023-04-30T05:39:09.451Z,100317.31
2023-04-30T05:42:11.864Z,100315.16
2023-04-30T05:45:17.202Z,100274.50
2023-04-30T05:48:19.987Z,100313.47
2023-04-30T05:51:22.491Z,100276.03
2023-04-30T05:54:25.172Z,100314.22
2023-04-30T05:57:27.597Z,100306.44
2023-04-30T06:00:31.242Z,100310.72
2023-04-30T06:03:33.737Z,100312.34
2023-04-30T06:06:36.338Z,100323.59
2023-04-30T06:09:38.841Z,100314.50
2023-04-30T06:12:41.325Z,100331.84
2023-04-30T06:15:43.734Z,100318.03
2023-04-30T06:18:46.115Z,100339.03
2023-04-30T06:21:48.702Z,100346.03
2023-04-30T06:24:51.092Z,100315.78
2023-04-30T06:27:54.176Z,100329.03
2023-04-30T06:30:56.896Z,100315.41
2023-04-30T06:33:59.703Z,100322.84
2023-04-30T06:37:02.053Z,100328.91
2023-04-30T06:40:06.229Z,100325.09
2023-04-30T06:43:08.639Z,100317.88
2023-04-30T06:46:11.177Z,100353.66
2023-04-30T06:49:13.813Z,100348.06
2023-04-30T06:52:16.217Z,100349.31
2023-04-30T06:55:19.050Z,100355.84
2023-04-30T06:58:21.510Z,100335.84
2023-04-30T07:01:23.928Z,100351.91
2023-04-30T07:04:27.212Z,100349.97
2023-04-30T07:07:29.698Z,100332.44
2023-04-30T07:10:32.259Z,100336.75
2023-04-30T07:13:34.717Z,100341.03
2023-04-30T07:16:37.179Z,100357.31
2023-04-30T07:19:39.777Z,100369.63
2023-04-30T07:22:46.513Z,100326.50
2023-04-30T07:25:49.366Z,100368.25
2023-04-30T07:28:51.930Z,100368.41
2023-04-30T07:31:54.403Z,100354.66
2023-04-30T07:34:57.155Z,100361.88
2023-04-30T07:37:59.527Z,100368.75
2023-04-30T07:41:02.231Z,100327.16
2023-04-30T07:44:04.954Z,100368.78
2023-04-30T07:47:07.688Z,100349.16
2023-04-30T07:50:10.505Z,100367.13
2023-04-30T07:53:13.010Z,100370.84
2023-04-30T07:56:15.983Z,100373.84
2023-04-30T07:59:18.789Z,100373.38
2023-04-30T08:02:21.822Z,100366.50
2023-04-30T08:05:24.543Z,100364.88
2023-04-30T08:08:26.989Z,100370.09
2023-04-30T08:11:29.698Z,100389.31
2023-04-30T08:14:33.123Z,100374.56
2023-04-30T08:17:36.018Z,100377.78
2023-04-30T08:20:38.800Z,100380.41
2023-04-30T08:23:41.312Z,100384.06
2023-04-30T08:26:43.723Z,100385.69
2023-04-30T08:29:46.247Z,100391.28
2023-04-30T08:32:49.428Z,100389.69
2023-04-30T08:35:51.988Z,100392.09
2023-04-30T08:38:54.635Z,100374.91
2023-04-30T08:41:57.876Z,100374.13
2023-04-30T08:45:01.628Z,100392.91
2023-04-30T08:48:05.428Z,100367.63
2023-04-30T08:51:08.019Z,100390.59
2023-04-30T08:54:13.038Z,100382.78
2023-04-30T08:57:15.610Z,100366.63
2023-04-30T09:00:18.347Z,100381.53
2023-04-30T09:03:23.809Z,100410.50
2023-04-30T09:06:27.272Z,100392.34
2023-04-30T09:09:31.763Z,100413.34
2023-04-30T09:12:35.290Z,100398.81
2023-04-30T09:15:41.685Z,100419.09
2023-04-30T09:18:44.318Z,100407.06
2023-04-30T09:21:47.058Z,100408.03
2023-04-30T09:24:51.028Z,100419.78
2023-04-30T09:28:12.796Z,100426.13
2023-04-30T09:31:22.176Z,100419.97
2023-04-30T09:34:35.732Z,100426.88
2023-04-30T09:37:38.702Z,100426.66
2023-04-30T09:40:42.688Z,100371.47
2023-04-30T09:43:45.987Z,100407.50
2023-04-30T09:46:50.918Z,100400.66
2023-04-30T09:49:53.725Z,100374.75
2023-04-30T09:53:06.577Z,100388.78
2023-04-30T09:56:12.118Z,100410.94
2023-04-30T09:59:16.228Z,100383.69
2023-04-30T10:02:20.251Z,100400.78
2023-04-30T10:05:23.079Z,100400.63
2023-04-30T10:08:31.841Z,100390.03
2023-04-30T10:11:37.659Z,100383.84
2023-04-30T10:14:45.716Z,100386.47
2023-04-30T10:18:02.343Z,100360.06
2023-04-30T10:21:12.607Z,100381.03
2023-04-30T10:24:20.673Z,100384.34
2023-04-30T10:27:23.293Z,100375.63
2023-04-30T10:30:26.254Z,100372.66
2023-04-30T10:33:41.898Z,100399.94
2023-04-30T10:36:44.848Z,100398.91
2023-04-30T10:39:47.445Z,100384.47
2023-04-30T10:42:54.632Z,100387.81
2023-04-30T10:45:58.720Z,100368.34
2023-04-30T10:49:01.432Z,100357.41
2023-04-30T10:52:05.048Z,100359.47
2023-04-30T10:55:09.092Z,100372.84
2023-04-30T10:58:29.973Z,100373.81
2023-04-30T11:01:57.249Z,100377.59
2023-04-30T11:05:11.598Z,100359.75
2023-04-30T11:08:14.338Z,100370.66
2023-04-30T11:11:22.991Z,100373.19
2023-04-30T11:14:25.496Z,100369.19
2023-04-30T11:17:28.258Z,100362.94
2023-04-30T11:20:30.784Z,100353.84
2023-04-30T11:27:05.591Z,100373.41
2023-04-30T11:30:18.669Z,100355.34
2023-04-30T11:33:22.893Z,100350.38
2023-04-30T11:36:26.795Z,100341.78
2023-04-30T11:39:32.486Z,100362.44
2023-04-30T11:42:35.597Z,100342.09
2023-04-30T11:45:39.307Z,100340.69
2023-04-30T11:48:44.158Z,100355.31
2023-04-30T11:51:50.777Z,100348.91
2023-04-30T11:54:55.592Z,100372.69
2023-04-30T11:57:59.929Z,100374.41
2023-04-30T12:01:02.816Z,100367.38
2023-04-30T12:04:06.320Z,100369.28
2023-04-30T12:07:09.754Z,100363.19
2023-04-30T12:10:12.711Z,100336.88
2023-04-30T12:13:16.680Z,100332.44
2023-04-30T12:16:20.002Z,100335.47
2023-04-30T12:19:25.365Z,100366.38
2023-04-30T12:22:28.738Z,100365.88
2023-04-30T12:25:31.140Z,100370.66
2023-04-30T12:28:34.954Z,100362.56
2023-04-30T12:31:38.631Z,100373.03
2023-04-30T12:34:42.008Z,100337.47
2023-04-30T12:37:45.844Z,100363.22
2023-04-30T12:40:51.354Z,100364.59
2023-04-30T12:44:14.191Z,100362.84
2023-04-30T12:47:16.910Z,100348.16
2023-04-30T12:50:22.639Z,100370.69
2023-04-30T12:53:25.339Z,100358.03
2023-04-30T12:56:27.775Z,100343.69
2023-04-30T12:59:31.652Z,100358.00
2023-04-30T13:02:34.497Z,100347.44
2023-04-30T13:05:37.070Z,100351.84
2023-04-30T13:08:54.081Z,100354.06
2023-04-30T13:12:01.220Z,100349.34
2023-04-30T13:15:03.996Z,100338.91
2023-04-30T13:18:09.369Z,100362.97
2023-04-30T13:21:12.748Z,100353.44
2023-04-30T13:24:16.077Z,100317.31
2023-04-30T13:27:18.545Z,100350.72
2023-04-30T13:30:21.037Z,100359.03
2023-04-30T13:33:23.529Z,100353.22
2023-04-30T13:36:25.867Z,100349.34
2023-04-30T13:39:28.541Z,100347.00
2023-04-30T13:42:31.929Z,100331.50
2023-04-30T13:45:34.433Z,100349.91
2023-04-30T13:48:36.848Z,100337.78
2023-04-30T13:51:39.372Z,100360.00
2023-04-30T13:54:42.086Z,100355.59
2023-04-30T13:57:44.505Z,100338.22
2023-04-30T14:00:47.092Z,100357.28
2023-04-30T14:03:49.636Z,100330.16
2023-04-30T14:06:52.875Z,100336.53
2023-04-30T14:09:55.446Z,100343.78
2023-04-30T14:12:58.196Z,100357.16
2023-04-30T14:16:00.690Z,100357.56
2023-04-30T14:19:03.239Z,100361.38
2023-04-30T14:22:05.832Z,100340.34
2023-04-30T14:25:09.554Z,100365.50
2023-04-30T14:28:12.062Z,100365.47
2023-04-30T14:31:14.771Z,100349.50
2023-04-30T14:34:17.608Z,100369.56
2023-04-30T14:37:20.447Z,100368.53
2023-04-30T14:40:23.445Z,100366.31
2023-04-30T14:43:25.951Z,100380.41
2023-04-30T14:46:28.612Z,100348.59
2023-04-30T14:49:31.396Z,100379.34
2023-04-30T14:52:33.761Z,100354.91
2023-04-30T14:55:36.231Z,100384.91
2023-04-30T14:58:38.701Z,100382.75
2023-04-30T15:01:42.279Z,100372.09
2023-04-30T15:04:46.353Z,100370.09
2023-04-30T15:07:48.755Z,100401.53
2023-04-30T15:10:51.182Z,100412.75
2023-04-30T15:13:55.159Z,100398.69
2023-04-30T15:16:57.665Z,100402.34
2023-04-30T15:20:02.303Z,100409.72
2023-04-30T15:23:05.525Z,100397.50
2023-04-30T15:26:08.367Z,100399.50
2023-04-30T15:29:11.229Z,100369.56
2023-04-30T15:32:14.002Z,100358.09
2023-04-30T15:35:16.513Z,100406.84
2023-04-30T15:38:19.185Z,100389.75
2023-04-30T15:41:22.211Z,100386.09
2023-04-30T15:44:24.633Z,100408.53
2023-04-30T15:47:27.145Z,100377.66
2023-04-30T15:50:31.008Z,100406.50
2023-04-30T15:53:33.850Z,100410.19
2023-04-30T15:56:36.614Z,100396.81
2023-04-30T15:59:39.046Z,100414.28
2023-04-30T16:02:41.615Z,100394.94
2023-04-30T16:05:44.125Z,100407.31
2023-04-30T16:08:47.001Z,100406.47
2023-04-30T16:11:50.844Z,100381.63
2023-04-30T16:14:53.696Z,100415.19
2023-04-30T16:17:58.861Z,100391.06
2023-04-30T16:21:01.648Z,100393.38
2023-04-30T16:24:07.793Z,100409.63
2023-04-30T16:27:10.394Z,100400.28
2023-04-30T16:30:13.154Z,100397.22
2023-04-30T16:33:16.354Z,100385.53
2023-04-30T16:36:18.967Z,100382.81
2023-04-30T16:39:21.347Z,100376.41
2023-04-30T16:42:34.896Z,100378.03
2023-04-30T16:45:37.556Z,100383.47
2023-04-30T16:48:40.281Z,100352.56
2023-04-30T16:51:42.657Z,100408.25
2023-04-30T16:54:45.474Z,100376.63
2023-04-30T16:57:47.986Z,100403.44
2023-04-30T17:00:55.944Z,100397.59
2023-04-30T17:03:58.572Z,100427.88
2023-04-30T17:07:01.081Z,100413.34
2023-04-30T17:10:04.710Z,100413.34
2023-04-30T17:13:07.170Z,100427.53
2023-04-30T17:16:09.753Z,100420.44
2023-04-30T17:19:12.236Z,100436.50
2023-04-30T17:22:19.425Z,100438.94
2023-04-30T17:25:22.446Z,100439.13
2023-04-30T17:28:26.082Z,100429.28
2023-04-30T17:31:30.646Z,100450.97
2023-04-30T17:34:33.458Z,100436.69
2023-04-30T17:37:36.621Z,100435.38
2023-04-30T17:40:39.187Z,100435.84
2023-04-30T17:43:41.769Z,100468.06
2023-04-30T17:46:45.557Z,100454.13
2023-04-30T17:49:48.317Z,100475.38
2023-04-30T17:52:51.384Z,100479.09
2023-04-30T17:55:53.889Z,100432.06
2023-04-30T17:58:56.601Z,100463.38
2023-04-30T18:01:59.713Z,100480.31
2023-04-30T18:05:02.593Z,100495.38
2023-04-30T18:08:06.399Z,100493.88
2023-04-30T18:11:09.517Z,100509.88
2023-04-30T18:14:12.664Z,100506.84
2023-04-30T18:17:15.348Z,100506.28
2023-04-30T18:20:18.257Z,100492.50
2023-04-30T18:23:22.152Z,100519.31
2023-04-30T18:26:25.048Z,100516.44
2023-04-30T18:29:27.750Z,100530.81
2023-04-30T18:32:30.449Z,100531.84
2023-04-30T18:35:34.208Z,100535.69
2023-04-30T18:38:38.772Z,100509.06
2023-04-30T18:41:41.280Z,100513.84
2023-04-30T18:44:43.845Z,100546.13
2023-04-30T18:47:46.436Z,100559.09
2023-04-30T18:50:49.947Z,100527.16
2023-04-30T18:53:53.046Z,100565.41
2023-04-30T18:56:55.418Z,100565.03
2023-04-30T18:59:58.215Z,100545.56
2023-04-30T19:03:01.202Z,100533.41
2023-04-30T19:06:04.773Z,100562.91
2023-04-30T19:09:07.314Z,100554.84
2023-04-30T19:12:10.308Z,100547.84
2023-04-30T19:15:15.048Z,100563.41
2023-04-30T19:18:18.847Z,100546.00
2023-04-30T19:21:21.466Z,100574.38
2023-04-30T19:24:25.249Z,100587.72
2023-04-30T19:27:28.096Z,100585.44
2023-04-30T19:30:32.387Z,100566.00
2023-04-30T19:33:39.208Z,100588.09
2023-04-30T19:36:43.864Z,100598.75
2023-04-30T19:39:46.546Z,100595.69
2023-04-30T19:42:49.074Z,100607.97
2023-04-30T19:45:53.807Z,100603.84
2023-04-30T19:48:56.487Z,100588.28
2023-04-30T19:51:59.341Z,100617.16
2023-04-30T19:55:02.332Z,100620.69
2023-04-30T19:58:05.262Z,100576.72
2023-04-30T20:01:08.880Z,100597.94
2023-04-30T20:04:11.845Z,100598.63
2023-04-30T20:07:14.619Z,100603.13
2023-04-30T20:10:17.399Z,100619.44
2023-04-30T20:13:21.064Z,100600.88
2023-04-30T20:16:23.920Z,100617.28
2023-04-30T20:19:26.672Z,100640.09
2023-04-30T20:22:29.393Z,100616.00
2023-04-30T20:25:31.849Z,100620.81
2023-04-30T20:28:34.800Z,100611.03
2023-04-30T20:31:37.825Z,100625.28
2023-04-30T20:34:41.725Z,100646.34
2023-04-30T20:37:44.292Z,100637.69
2023-04-30T20:40:47.192Z,100644.88
2023-04-30T20:43:52.091Z,100614.59
2023-04-30T20:46:54.890Z,100654.38
2023-04-30T20:49:57.787Z,100650.28
2023-04-30T20:53:00.823Z,100652.00
2023-04-30T20:56:03.714Z,100642.34
2023-04-30T20:59:06.162Z,100633.28
2023-04-30T21:02:10.328Z,100664.06
2023-04-30T21:05:13.206Z,100663.94
2023-04-30T21:08:15.577Z,100660.38
2023-04-30T21:11:19.386Z,100644.38
2023-04-30T21:14:21.999Z,100624.75
2023-04-30T21:17:24.422Z,100632.66
2023-04-30T21:20:27.202Z,100644.22
2023-04-30T21:23:30.056Z,100669.44
2023-04-30T21:26:32.767Z,100644.34
2023-04-30T21:29:35.483Z,100669.44
2023-04-30T21:32:38.298Z,100642.72
2023-04-30T21:35:40.866Z,100645.81
2023-04-30T21:38:43.281Z,100679.63
2023-04-30T21:41:45.882Z,100678.38
2023-04-30T21:44:48.580Z,100655.34
2023-04-30T21:47:51.130Z,100652.75
2023-04-30T21:50:53.532Z,100688.22
2023-04-30T21:53:57.396Z,100679.53
2023-04-30T21:57:01.148Z,100701.38
2023-04-30T22:00:07.281Z,100703.34
2023-04-30T22:03:11.706Z,100697.41
2023-04-30T22:06:14.247Z,100696.09
2023-04-30T22:09:16.923Z,100691.31
2023-04-30T22:12:21.313Z,100676.94
2023-04-30T22:15:26.025Z,100679.72
2023-04-30T22:18:31.758Z,100695.63
2023-04-30T22:21:34.402Z,100696.56
2023-04-30T22:24:37.196Z,100681.69
2023-04-30T22:27:39.550Z,100706.41
2023-04-30T22:30:42.036Z,100682.81
2023-04-30T22:33:44.838Z,100710.09
2023-04-30T22:36:47.361Z,100712.13
2023-04-30T22:39:49.749Z,100687.63
2023-04-30T22:42:52.355Z,100709.09
2023-04-30T22:45:55.215Z,100708.44
2023-04-30T22:48:57.704Z,100698.63
2023-04-30T22:52:00.795Z,100678.75
2023-04-30T22:55:05.544Z,100681.56
2023-04-30T22:58:07.957Z,100702.56
2023-04-30T23:01:10.436Z,100673.78
2023-04-30T23:04:13.747Z,100673.50
2023-04-30T23:07:16.659Z,100673.59
2023-04-30T23:10:19.178Z,100714.75
2023-04-30T23:13:21.701Z,100683.56
2023-04-30T23:16:24.167Z,100706.25
2023-04-30T23:19:26.851Z,100703.72
2023-04-30T23:22:29.321Z,100700.41
2023-04-30T23:25:32.805Z,100699.97
2023-04-30T23:28:36.928Z,100712.97
2023-04-30T23:31:40.155Z,100680.78
2023-04-30T23:34:42.600Z,100717.34
2023-04-30T23:37:45.364Z,100706.25
2023-04-30T23:40:48.138Z,100703.00
2023-04-30T23:43:51.064Z,100705.41
2023-04-30T23:46:55.680Z,100715.72
2023-04-30T23:49:58.327Z,100687.94
2023-04-30T23:53:00.812Z,100696.50
2023-04-30T23:56:03.592Z,100683.72
2023-04-30T23:59:06.020Z,100717.72
